Juliaetta, ID (83535)

3:42 AM PDT on September 20, 2014 (GMT -0700)
Lamb Road | Change Station
CLOSE
Current Station
Personal Weather Station
Location: Troy, ID
Elevation: 2677 ft
Nearby Weather Stations
Active Advisory: Air Quality Alert Active Notice: Record Report

Elev 2677 ft 46.72 °N, 116.77 °W | Updated 3 minutes ago

Clear
Clear
51.3 °F
Feels Like 51.3 °F
N
0.0
Wind Variable Wind from SW

Today
High -- | Low -- °F
--% Chance of Precip.
Yesterday
High -- | Low -- °F
Precip. -- in
6:31 AM 6:48 PM
Waning Crescent, 13% visible
Pressure 30.09 in
Visibility 10.0 miles
Clouds Clear
Dew Point 45 °F
Humidity 80%
Rainfall 0.00 in
Snow Depth 1 in , 0 in , 2 in
UV 0 out of 12
Pollen 7.10 out of 12
PM2.5 Good
Flu Activity Not available.
METAR KLWS 200956Z AUTO 08003KT 10SM CLR 16/08 A3010 RMK AO2 SLP187 T01560078

More Conditions Fewer Conditions

Pressure 30.09 in
Visibility 10.0 miles
Clouds Clear
Dew Point 45 °F
Humidity 80%
Rainfall 0.00 in
Snow Depth 1 in , 0 in , 2 in
UV 0 out of 12
Pollen 7.10 out of 12
PM2.5 Good
Flu Activity Not available.
METAR KLWS 200956Z AUTO 08003KT 10SM CLR 16/08 A3010 RMK AO2 SLP187 T01560078

More Conditions Fewer Conditions

10-Day Weather Forecast

Almanac

Astronomy

Sep. 20, 2014 Rise Set
Actual Time 6:31 AM PDT 6:48 PM PDT
Civil Twilight 6:01 AM PDT 7:18 PM PDT
Nautical Twilight 5:25 AM PDT 7:54 PM PDT
Astronomical Twilight 4:48 AM PDT 8:30 PM PDT
Moon 3:05 AM PDT 5:02 PM PDT
Length of Visible Light 13h 17m
Length of Day
12h 17m
Tomorrow will be 3m 17s shorter.
Waning Crescent, 13% of the Moon is Illuminated
Today
Waning Crescent
Sep 24
New
Oct 1
First Quarter
Oct 8
Full
Oct 15
Last Quarter

Today's Extremes

State Highs State Lows

Community

WunderPhotos

Upload Photos

1,754,827 photos uploaded!

WunderBlogs® & News

Nearby

Air Quality

  Air Quality AQ Index Pollutant
Yesterday Good
PM2.5
Current Good
PM2.5
Saturday Moderate
PM2.5
Sunday Moderate
PM2.5
Monday Moderate
PM2.5

Snow Depth

Station Depth Elevation
Squaw Flat 1 in 6240 ft
Myrtle Creek 0 in 3520 ft
Schwartz Lake 0 in 8620 ft
Mill Creek Summit 2 in 8800 ft
Crab Creek 0 in 6860 ft

Earthquake Activity

City Distance Mag. Time & Date
No recent earthquake activity has been reported nearby.
Minimum magnitude displayed is 2.5.

Coastal Water Temperatures

Place Temperature
No Stations Reporting

Nearby Weather Stations